createdAt,value
2022-09-04T00:00:53.074Z,18.6
2022-09-04T00:03:53.169Z,18.6
2022-09-04T00:06:53.074Z,18.6
2022-09-04T00:09:53.073Z,18.6
2022-09-04T00:12:53.078Z,18.6
2022-09-04T00:15:53.063Z,18.6
2022-09-04T00:18:53.076Z,18.5
2022-09-04T00:21:53.069Z,18.5
2022-09-04T00:24:53.066Z,18.5
2022-09-04T00:27:53.063Z,18.5
2022-09-04T00:30:53.113Z,18.5
2022-09-04T00:33:53.067Z,18.5
2022-09-04T00:36:53.067Z,18.5
2022-09-04T00:39:53.158Z,18.5
2022-09-04T00:42:53.075Z,18.45
2022-09-04T00:45:53.132Z,18.45
2022-09-04T00:48:53.076Z,18.4
2022-09-04T00:51:53.065Z,18.4
2022-09-04T00:54:53.071Z,18.4
2022-09-04T00:57:53.073Z,18.4
2022-09-04T01:00:53.107Z,18.45
2022-09-04T01:03:53.073Z,18.5
2022-09-04T01:06:53.063Z,18.5
2022-09-04T01:09:53.069Z,18.5
2022-09-04T01:12:53.072Z,18.5
2022-09-04T01:15:53.073Z,18.5
2022-09-04T01:18:53.066Z,18.55
2022-09-04T01:21:53.075Z,18.55
2022-09-04T01:24:53.079Z,18.55
2022-09-04T01:27:53.073Z,18.55
2022-09-04T01:30:53.077Z,18.55
2022-09-04T01:33:53.076Z,18.55
2022-09-04T01:36:53.072Z,18.55
2022-09-04T01:39:53.110Z,18.55
2022-09-04T01:42:53.075Z,18.55
2022-09-04T01:45:53.287Z,18.55
2022-09-04T01:48:53.094Z,18.55
2022-09-04T01:51:53.082Z,18.6
2022-09-04T01:54:53.077Z,18.65
2022-09-04T01:57:53.083Z,18.65
2022-09-04T02:00:53.679Z,18.65
2022-09-04T02:03:53.079Z,18.65
2022-09-04T02:06:53.081Z,18.65
2022-09-04T02:09:53.866Z,18.65
2022-09-04T02:12:53.087Z,18.65
2022-09-04T02:18:53.080Z,18.65
2022-09-04T02:21:53.079Z,18.75
2022-09-04T02:24:53.082Z,18.75
2022-09-04T02:27:53.081Z,18.75
2022-09-04T02:30:54.390Z,18.75
2022-09-04T02:33:53.088Z,18.75
2022-09-04T02:36:53.087Z,18.75
2022-09-04T02:39:53.133Z,18.75
2022-09-04T02:42:53.097Z,18.75
2022-09-04T02:45:53.093Z,18.65
2022-09-04T02:48:53.124Z,18.65
2022-09-04T02:51:53.097Z,18.65
2022-09-04T02:54:53.100Z,18.65
2022-09-04T02:57:53.093Z,18.65
2022-09-04T03:00:53.141Z,18.65
2022-09-04T03:03:53.096Z,18.65
2022-09-04T03:06:53.100Z,18.65
2022-09-04T03:09:53.109Z,18.65
2022-09-04T03:12:53.106Z,18.65
2022-09-04T03:15:53.140Z,18.65
2022-09-04T03:18:53.114Z,18.65
2022-09-04T03:21:53.101Z,18.6
2022-09-04T03:24:53.105Z,18.6
2022-09-04T03:27:53.102Z,18.6
2022-09-04T03:30:53.108Z,18.6
2022-09-04T03:33:53.103Z,18.6
2022-09-04T03:36:53.104Z,18.6
2022-09-04T03:39:53.178Z,18.55
2022-09-04T03:42:53.106Z,18.55
2022-09-04T03:45:53.113Z,18.55
2022-09-04T03:48:53.106Z,18.6
2022-09-04T03:51:53.104Z,18.6
2022-09-04T03:54:53.113Z,18.6
2022-09-04T03:57:53.125Z,18.6
2022-09-04T04:00:53.152Z,18.6
2022-09-04T04:03:53.126Z,18.6
2022-09-04T04:06:53.114Z,18.65
2022-09-04T04:09:53.111Z,18.65
2022-09-04T04:12:53.108Z,18.65
2022-09-04T04:15:53.170Z,18.65
2022-09-04T04:18:53.121Z,18.65
2022-09-04T04:21:53.107Z,18.65
2022-09-04T04:24:53.108Z,18.65
2022-09-04T04:27:53.108Z,18.65
2022-09-04T04:30:53.113Z,18.65
2022-09-04T04:33:53.107Z,18.65
2022-09-04T04:36:53.107Z,18.65
2022-09-04T04:39:53.174Z,18.65
2022-09-04T04:42:53.117Z,18.65
2022-09-04T04:45:53.117Z,18.65
2022-09-04T04:48:53.112Z,18.65
2022-09-04T04:51:53.126Z,18.65
2022-09-04T04:54:53.113Z,18.65
2022-09-04T04:57:53.114Z,18.65
2022-09-04T05:00:53.110Z,18.65
2022-09-04T05:03:53.111Z,18.65
2022-09-04T05:06:53.109Z,18.65
2022-09-04T05:09:53.120Z,18.65
2022-09-04T05:12:53.112Z,18.65
2022-09-04T05:16:08.253Z,18.65
2022-09-04T05:18:53.109Z,18.65
2022-09-04T05:21:53.106Z,18.65
2022-09-04T05:24:54.109Z,18.6
2022-09-04T05:27:53.113Z,18.6
2022-09-04T05:30:53.153Z,18.6
2022-09-04T05:33:53.112Z,18.6
2022-09-04T05:36:53.128Z,18.6
2022-09-04T05:39:53.136Z,18.65
2022-09-04T05:42:53.121Z,18.65
2022-09-04T05:45:53.115Z,18.65
2022-09-04T05:48:53.115Z,18.65
2022-09-04T05:51:53.114Z,18.6
2022-09-04T05:54:53.117Z,18.65
2022-09-04T05:57:53.117Z,18.65
2022-09-04T06:00:53.122Z,18.65
2022-09-04T06:03:53.121Z,18.65
2022-09-04T06:06:53.156Z,18.65
2022-09-04T06:09:53.122Z,18.65
2022-09-04T06:12:53.118Z,18.7
2022-09-04T06:15:53.171Z,18.7
2022-09-04T06:18:53.117Z,18.7
2022-09-04T06:21:53.128Z,18.7
2022-09-04T06:24:53.124Z,18.7
2022-09-04T06:27:53.123Z,18.7
2022-09-04T06:30:53.179Z,18.7
2022-09-04T06:33:53.141Z,18.75
2022-09-04T06:36:53.123Z,18.75
2022-09-04T06:39:53.198Z,18.75
2022-09-04T06:42:53.134Z,18.75
2022-09-04T06:45:53.134Z,18.8
2022-09-04T06:48:53.138Z,18.8
2022-09-04T06:51:53.135Z,18.8
2022-09-04T06:54:53.137Z,18.8
2022-09-04T06:57:53.135Z,18.8
2022-09-04T07:00:53.138Z,18.85
2022-09-04T07:03:53.129Z,18.9
2022-09-04T07:06:53.132Z,18.9
2022-09-04T07:09:53.134Z,18.9
2022-09-04T07:12:53.136Z,18.9
2022-09-04T07:15:53.241Z,18.9
2022-09-04T07:18:53.134Z,18.95
2022-09-04T07:21:53.139Z,18.95
2022-09-04T07:24:53.134Z,18.9
2022-09-04T07:27:53.135Z,18.9
2022-09-04T07:30:53.138Z,18.9
2022-09-04T07:33:53.178Z,18.9
2022-09-04T07:36:53.150Z,18.9
2022-09-04T07:39:53.219Z,18.9
2022-09-04T07:42:53.132Z,18.9
2022-09-04T07:45:53.195Z,18.9
2022-09-04T07:48:53.135Z,18.9
2022-09-04T07:51:53.135Z,18.9
2022-09-04T07:54:53.137Z,18.95
2022-09-04T07:57:53.140Z,19
2022-09-04T08:00:53.138Z,19
2022-09-04T08:03:54.181Z,19.05
2022-09-04T08:06:53.161Z,19.05
2022-09-04T08:09:53.135Z,19.1
2022-09-04T08:12:53.144Z,19.15
2022-09-04T08:15:53.192Z,19.15
2022-09-04T08:18:53.160Z,19.2
2022-09-04T08:21:53.148Z,19.2
2022-09-04T08:24:53.146Z,19.2
2022-09-04T08:27:53.154Z,19.2
2022-09-04T08:30:53.242Z,19.25
2022-09-04T08:33:53.155Z,19.3
2022-09-04T08:36:53.158Z,19.3
2022-09-04T08:39:53.195Z,19.35
2022-09-04T08:42:53.150Z,19.35
2022-09-04T08:45:53.209Z,19.45
2022-09-04T08:48:53.150Z,19.45
2022-09-04T08:51:53.149Z,19.55
2022-09-04T08:54:53.154Z,19.6
2022-09-04T08:57:53.144Z,19.65
2022-09-04T09:00:53.152Z,19.65
2022-09-04T09:03:53.150Z,19.7
2022-09-04T09:06:53.154Z,19.8
2022-09-04T09:09:53.150Z,19.85
2022-09-04T09:12:53.155Z,19.9
2022-09-04T09:15:53.152Z,19.95
2022-09-04T09:18:53.170Z,20
2022-09-04T09:21:53.150Z,20.1
2022-09-04T09:24:53.156Z,20.15
2022-09-04T09:27:53.148Z,20.2
2022-09-04T09:30:53.238Z,20.2
2022-09-04T09:33:53.150Z,20.3
2022-09-04T09:36:53.155Z,20.3
2022-09-04T09:39:53.181Z,20.4
2022-09-04T09:42:53.150Z,20.45
2022-09-04T09:45:53.211Z,20.6
2022-09-04T09:48:53.154Z,20.7
2022-09-04T09:51:53.154Z,20.9
2022-09-04T09:54:53.161Z,21.25
2022-09-04T09:57:53.157Z,21.45
2022-09-04T10:00:53.195Z,21.75
2022-09-04T10:03:53.160Z,22.1
2022-09-04T10:06:53.160Z,22.3
2022-09-04T10:09:53.156Z,22.6
2022-09-04T10:12:53.160Z,22.8
2022-09-04T10:15:53.159Z,23.15
2022-09-04T10:18:53.167Z,23.3
2022-09-04T10:21:53.168Z,23.55
2022-09-04T10:24:53.158Z,23.7
2022-09-04T10:27:53.162Z,23.8
2022-09-04T10:30:53.247Z,23.8
2022-09-04T10:33:53.159Z,23.8
2022-09-04T10:36:53.171Z,23.8
2022-09-04T10:39:53.189Z,23.85
2022-09-04T10:42:53.162Z,23.85
2022-09-04T10:45:53.209Z,23.85
2022-09-04T10:48:53.176Z,23.8
2022-09-04T10:51:53.163Z,23.85
2022-09-04T10:54:53.169Z,23.9
2022-09-04T10:57:53.164Z,24
2022-09-04T11:00:53.204Z,24.05
2022-09-04T11:03:53.171Z,24.05
2022-09-04T11:06:53.173Z,24.05
2022-09-04T11:09:53.182Z,24.1
2022-09-04T11:12:53.167Z,24.15
2022-09-04T11:15:53.170Z,24.15
2022-09-04T11:18:53.169Z,24.2
2022-09-04T11:21:53.168Z,24.25
2022-09-04T11:24:53.172Z,24.3
2022-09-04T11:27:53.183Z,24.3
2022-09-04T11:30:53.173Z,24.35
2022-09-04T11:33:53.165Z,24.4
2022-09-04T11:36:53.170Z,24.45
2022-09-04T11:39:53.269Z,24.5
2022-09-04T11:42:53.185Z,24.5
2022-09-04T11:45:53.209Z,24.55
2022-09-04T11:48:53.170Z,24.6
2022-09-04T11:51:53.179Z,24.55
2022-09-04T11:54:53.170Z,24.55
2022-09-04T11:57:53.174Z,24.6
2022-09-04T12:00:53.184Z,24.65
2022-09-04T12:03:53.237Z,24.65
2022-09-04T12:06:53.173Z,24.65
2022-09-04T12:09:53.171Z,24.7
2022-09-04T12:12:53.190Z,24.7
2022-09-04T12:15:53.177Z,24.75
2022-09-04T12:18:53.178Z,24.8
2022-09-04T12:21:53.178Z,24.85
2022-09-04T12:24:53.175Z,24.8
2022-09-04T12:27:53.186Z,24.85
2022-09-04T12:30:53.193Z,24.85
2022-09-04T12:33:53.191Z,24.9
2022-09-04T12:36:53.183Z,24.9
2022-09-04T12:39:53.284Z,24.9
2022-09-04T12:42:53.188Z,24.9
2022-09-04T12:45:53.277Z,24.85
2022-09-04T12:48:53.197Z,24.85
2022-09-04T12:51:53.220Z,24.85
2022-09-04T12:54:53.199Z,24.85
2022-09-04T12:57:53.185Z,24.9
2022-09-04T13:00:53.293Z,24.85
2022-09-04T13:03:53.196Z,24.85
2022-09-04T13:06:53.640Z,24.9
2022-09-04T13:09:53.840Z,24.95
2022-09-04T13:12:53.189Z,24.95
2022-09-04T13:15:53.205Z,24.9
2022-09-04T13:18:53.186Z,24.95
2022-09-04T13:21:53.187Z,24.95
2022-09-04T13:24:53.192Z,24.95
2022-09-04T13:27:53.190Z,25
2022-09-04T13:30:53.190Z,24.95
2022-09-04T13:33:53.207Z,24.95
2022-09-04T13:36:53.190Z,25
2022-09-04T13:39:53.286Z,24.95
2022-09-04T13:42:53.195Z,24.95
2022-09-04T13:45:53.196Z,24.9
2022-09-04T13:48:53.194Z,24.9
2022-09-04T13:51:53.190Z,24.95
2022-09-04T13:54:53.190Z,24.9
2022-09-04T13:57:53.193Z,24.75
2022-09-04T14:00:53.226Z,24.75
2022-09-04T14:03:53.236Z,24.7
2022-09-04T14:06:53.192Z,24.7
2022-09-04T14:09:53.197Z,24.65
2022-09-04T14:12:54.029Z,24.7
2022-09-04T14:15:53.227Z,24.7
2022-09-04T14:18:53.201Z,24.65
2022-09-04T14:21:53.200Z,24.65
2022-09-04T14:24:53.208Z,24.6
2022-09-04T14:27:53.205Z,24.6
2022-09-04T14:30:53.201Z,24.6
2022-09-04T14:33:53.209Z,24.55
2022-09-04T14:36:53.205Z,24.55
2022-09-04T14:39:53.243Z,24.55
2022-09-04T14:42:53.203Z,24.6
2022-09-04T14:45:53.205Z,24.6
2022-09-04T14:48:53.212Z,24.5
2022-09-04T14:51:53.208Z,24.5
2022-09-04T14:54:53.222Z,24.5
2022-09-04T14:57:53.226Z,24.5
2022-09-04T15:00:53.245Z,24.5
2022-09-04T15:03:53.323Z,24.45
2022-09-04T15:09:53.267Z,24.45
2022-09-04T15:12:53.242Z,24.45
2022-09-04T15:15:53.288Z,24.4
2022-09-04T15:18:53.241Z,24.4
2022-09-04T15:21:53.236Z,24.4
2022-09-04T15:24:53.244Z,24.4
2022-09-04T15:27:53.250Z,24.35
2022-09-04T15:30:53.281Z,24.3
2022-09-04T15:33:53.246Z,24.3
2022-09-04T15:36:53.233Z,24.3
2022-09-04T15:39:53.271Z,24.25
2022-09-04T15:42:53.231Z,24.25
2022-09-04T15:45:53.251Z,24.25
2022-09-04T15:48:53.261Z,24.25
2022-09-04T15:51:53.233Z,24.2
2022-09-04T15:54:53.248Z,24.2
2022-09-04T15:57:53.229Z,24.15
2022-09-04T16:00:53.241Z,24.2
2022-09-04T16:03:53.231Z,24.15
2022-09-04T16:06:53.240Z,24.15
2022-09-04T16:09:53.253Z,24.15
2022-09-04T16:12:53.251Z,24.15
2022-09-04T16:15:53.300Z,24.1
2022-09-04T16:18:53.258Z,24.05
2022-09-04T16:21:53.252Z,24.05
2022-09-04T16:24:53.246Z,24.05
2022-09-04T16:27:53.252Z,24
2022-09-04T16:30:53.256Z,24
2022-09-04T16:33:53.238Z,23.95
2022-09-04T16:36:53.248Z,23.95
2022-09-04T16:39:53.264Z,23.95
2022-09-04T16:42:53.240Z,23.95
2022-09-04T16:45:53.259Z,23.95
2022-09-04T16:48:53.237Z,23.95
2022-09-04T16:51:53.235Z,23.9
2022-09-04T16:54:53.243Z,23.9
2022-09-04T16:57:53.240Z,23.9
2022-09-04T17:00:53.243Z,23.9
2022-09-04T17:03:54.888Z,23.9
2022-09-04T17:06:53.247Z,23.8
2022-09-04T17:09:53.240Z,23.8
2022-09-04T17:12:53.236Z,23.8
2022-09-04T17:15:54.033Z,23.75
2022-09-04T17:18:53.240Z,23.7
2022-09-04T17:22:43.384Z,23.7
2022-09-04T17:28:54.868Z,23.7
2022-09-04T17:29:05.540Z,23.6
2022-09-04T17:30:53.349Z,23.6
2022-09-04T17:38:09.124Z,23.55
2022-09-04T17:40:06.335Z,23.55
2022-09-04T17:40:46.018Z,23.5
2022-09-04T17:43:10.540Z,23.45
2022-09-04T17:45:53.314Z,23.4
2022-09-04T17:48:53.257Z,23.4
2022-09-04T17:51:54.052Z,23.35
2022-09-04T17:54:53.253Z,23.25
2022-09-04T17:57:53.253Z,23.25
2022-09-04T18:00:53.242Z,23.2
2022-09-04T18:04:06.230Z,23.15
2022-09-04T18:06:53.251Z,23.15
2022-09-04T18:09:53.350Z,23.05
2022-09-04T18:12:53.256Z,23
2022-09-04T18:15:53.257Z,22.95
2022-09-04T18:18:53.245Z,22.95
2022-09-04T18:22:25.243Z,22.9
2022-09-04T18:24:53.279Z,22.85
2022-09-04T18:28:06.018Z,22.8
2022-09-04T18:33:53.605Z,22.75
2022-09-04T18:37:14.077Z,22.65
2022-09-04T18:37:15.092Z,22.65
2022-09-04T18:39:53.290Z,22.6
2022-09-04T18:44:47.981Z,22.55
2022-09-04T18:50:26.896Z,22.55
2022-09-04T18:51:01.361Z,22.45
2022-09-04T18:51:53.304Z,22.45
2022-09-04T18:54:54.121Z,22.35
2022-09-04T18:57:53.259Z,22.35
2022-09-04T19:00:53.439Z,22.25
2022-09-04T19:03:53.264Z,22.25
2022-09-04T19:06:53.262Z,22.15
2022-09-04T19:09:55.426Z,22.15
2022-09-04T19:12:53.266Z,22.1
2022-09-04T19:15:53.262Z,22.05
2022-09-04T19:18:53.263Z,22.05
2022-09-04T19:21:57.631Z,21.95
2022-09-04T19:24:53.267Z,21.95
2022-09-04T19:27:55.098Z,21.85
2022-09-04T19:30:53.270Z,21.85
2022-09-04T19:33:53.263Z,21.8
2022-09-04T19:36:53.269Z,21.75
2022-09-04T19:41:58.170Z,21.75
2022-09-04T19:45:53.931Z,21.65
2022-09-04T19:46:10.967Z,21.65
2022-09-04T19:49:21.512Z,21.65
2022-09-04T19:53:23.687Z,21.55
2022-09-04T19:54:59.881Z,21.55
2022-09-04T19:57:53.302Z,21.55
2022-09-04T20:00:53.320Z,21.45
2022-09-04T20:03:53.309Z,21.45
2022-09-04T20:06:53.303Z,21.45
2022-09-04T20:09:53.290Z,21.4
2022-09-04T20:12:53.295Z,21.35
2022-09-04T20:15:53.299Z,21.35
2022-09-04T20:18:53.294Z,21.3
2022-09-04T20:21:53.298Z,21.25
2022-09-04T20:25:01.315Z,21.25
2022-09-04T20:27:53.293Z,21.25
2022-09-04T20:30:53.301Z,21.2
2022-09-04T20:33:53.299Z,21.15
2022-09-04T20:36:53.296Z,21.15
2022-09-04T20:39:53.347Z,21.1
2022-09-04T20:42:54.127Z,21.05
2022-09-04T20:46:46.966Z,21.05
2022-09-04T20:52:48.270Z,21.05
2022-09-04T20:53:00.936Z,21
2022-09-04T20:54:53.299Z,21
2022-09-04T21:00:02.704Z,20.95
2022-09-04T21:03:06.912Z,20.95
2022-09-04T21:03:57.051Z,20.95
2022-09-04T21:06:53.298Z,20.85
2022-09-04T21:09:55.239Z,20.85
2022-09-04T21:13:09.487Z,20.85
2022-09-04T21:15:53.382Z,20.75
2022-09-04T21:19:06.486Z,20.75
2022-09-04T21:21:53.303Z,20.75
2022-09-04T21:24:53.306Z,20.75
2022-09-04T21:27:53.307Z,20.75
2022-09-04T21:30:53.293Z,20.7
2022-09-04T21:33:53.299Z,20.65
2022-09-04T21:36:53.304Z,20.65
2022-09-04T21:39:57.752Z,20.65
2022-09-04T21:42:53.295Z,20.65
2022-09-04T21:45:53.302Z,20.65
2022-09-04T21:48:53.307Z,20.65
2022-09-04T21:51:53.316Z,20.65
2022-09-04T21:56:46.223Z,20.65
2022-09-04T22:02:25.618Z,20.65
2022-09-04T22:02:33.645Z,20.65
2022-09-04T22:03:53.388Z,20.65
2022-09-04T22:07:37.673Z,20.6
2022-09-04T22:13:18.825Z,20.6
2022-09-04T22:13:36.642Z,20.55
2022-09-04T22:15:53.352Z,20.55
2022-09-04T22:18:53.302Z,20.55
2022-09-04T22:21:53.307Z,20.5
2022-09-04T22:24:53.314Z,20.5
2022-09-04T22:27:56.631Z,20.45
2022-09-04T22:30:53.315Z,20.45
2022-09-04T22:34:14.807Z,20.4
2022-09-04T22:37:00.449Z,20.4
2022-09-04T22:39:53.392Z,20.4
2022-09-04T22:42:53.313Z,20.35
2022-09-04T22:45:53.314Z,20.3
2022-09-04T22:48:57.728Z,20.3
2022-09-04T22:51:53.315Z,20.25
2022-09-04T22:54:53.331Z,20.2
2022-09-04T22:57:53.338Z,20.2
2022-09-04T23:00:53.318Z,20.2
2022-09-04T23:03:53.376Z,20.15
2022-09-04T23:08:01.254Z,20.15
2022-09-04T23:13:55.287Z,20.15
2022-09-04T23:13:55.853Z,20.15
2022-09-04T23:15:53.348Z,20.1
2022-09-04T23:20:45.503Z,20.1
2022-09-04T23:24:21.256Z,20.1
2022-09-04T23:26:40.832Z,20.1
2022-09-04T23:27:53.323Z,20.1
2022-09-04T23:30:53.329Z,20.1
2022-09-04T23:33:53.332Z,20.1
2022-09-04T23:36:53.330Z,20.05
2022-09-04T23:39:53.426Z,20.05
2022-09-04T23:42:53.328Z,20
2022-09-04T23:46:01.597Z,20
2022-09-04T23:48:53.332Z,20
2022-09-04T23:51:53.330Z,19.95
2022-09-04T23:54:53.338Z,19.95
2022-09-04T23:57:53.331Z,19.95
